Dixon Entrance East: Past 24 Hour Conditions

 

Bella Bella Airport

02:00 AM PDT 19 October 2018
Disclaimer

This table is a summary of hourly weather conditions for the past 24 hours.
Please note that these observations might not always be representative of weather conditions over their associated marine area.

Date / Time
(PDT)
Wind(knots) Conditions Visibility(km) Pressure(kPa) Air tempC) Relative humidity(%) Dew pointC)
19 October 2018
2:00 calm Clear 16 102.2 8 96 7
1:00 calm Cloudy 16 102.2 10 95 9
0:00 S 2 Cloudy 16 102.2 10 96 9
18 October 2018
23:00 calm Cloudy 16 102.2 10 96 9
22:00 calm Cloudy 16 102.2 9 96 8
21:00 calm Cloudy 16 102.2 9 95 9
20:00 calm Mostly Cloudy 16 102.2 10 95 9
19:00 WSW 2 Cloudy 16 102.2 12 93 10
18:00 calm Cloudy 16 102.2 13 89 11
17:00 SSE 3 Cloudy 16 102.1 13 82 10
16:00 NNE 2 Cloudy 16 102.2 14 80 10
15:00 calm Partly Cloudy 16 102.2 13 82 10
14:00 NNE 3 Partly Cloudy 16 102.2 13 84 10
13:00 NNW 4 Cloudy 16 102.2 13 83 10
12:00 E 3 Mainly Sunny 16 102.2 12 88 10
11:00 NE 2 Mist 8 102.2 10 99 10
10:00 calm Mostly Cloudy 16 102.2 10 99 10
9:00 NNW 2 Fog 0.4 102.1 10 99 10
8:00 NNW 2 Fog 0.2 102.2 9 99 9
7:00 W 2 Mist 3 102.1 9 98 9
6:00 calm Cloudy 16 102.1 9 98 9
5:00 calm Cloudy 15 102.1 9 97 8
4:00 calm Cloudy 16 102.1 9 97 9
3:00 WNW 2 Mostly Cloudy 16 102.1 9 97 9
2:00 calm Cloudy 16 102.1 9 97 9

Zoom-in to make a selection

Map of Pacific - North Coast marine weather areas Middle Nomad - 46004 South Nomad - 46036 Dixon Entrance Central - 46145 South Moresby - 46147 Nanakwa Shoal - 46181 North Hecate Strait - 46183 North Nomad - 46184 South Hecate Strait - 46185 West Sea Otter - 46204 West Dixon Entrance - 46205 East Dellwood - 46207 West Moresby - 46208 Sartine Island Cape St.James Kindakun Rocks Langara Island Masset Municipal Airport Rose Spit Sandspit Airport Bella Bella Airport Bella Coola Airport Bonilla Island Cathedral Point Cumshewa Island Grey Islet Holland Rock Lucy Islands Lightstation Prince Rupert Airport
Legend:
buoy Buoy
land station Land Station

Pacific - North Coast Area

Another Region

What we are doing

Date modified: